Terminal Aerodrome Forecast
Issued by NWS Albuquerque, NM

Home | Current Version | Previous Version | Text Only | Print | Product List | Glossary On
Versions: 1 2 3 4 5 6 7 8 9 10 11 12 13 14 15 16
931
FTUS45 KABQ 030755 AAB
TAFABQ
TAF AMD
KABQ 030755Z 0308/0406 09017KT P6SM VCSH SCT025 OVC030
      TEMPO 0308/0311 2SM -SN BKN020
     FM031300 03009KT P6SM BKN040
     FM031800 36009KT P6SM SCT060 SCT110
     FM040100 36007KT P6SM FEW250=

USA.gov is the U.S. government's official web portal to all federal, state and local government web resources and services.